Wonalancet, NH (03897)

10:22 AM EST on December 21, 2014 (GMT -0500)
APRSWXNET Madison NH US | Change Station
CLOSE
Current Station
Personal Weather Station
Location: Madison, NH
Elevation: 951 ft
Nearby Weather Stations

Elev 951 ft 43.89 °N, 71.12 °W | Updated 21 minutes ago

Snow
Snow
21 °F
Feels Like 21 °F
N
2
Wind Variable Wind from East
Gusts 5.0 mph

Today
High -- | Low -- °F
--% Chance of Precip.
Yesterday
High -- | Low -- °F
Precip. -- in
7:16 AM 4:10 PM
Waning Crescent, 0% visible
Pressure 30.40 in
Visibility 10.0 miles
Clouds Few 4300 ft
Overcast 7000 ft
Windchill 21 °F
Dew Point 18 °F
Humidity 88%
Rainfall 0.00 in
Snow Depth Not available.
UV 0 out of 12
Pollen .10 out of 12
Air Quality Not available.
Flu Activity Not available.
METAR KIZG 211454Z AUTO 00000KT 10SM FEW043 OVC070 M06/M09 A3037 RMK AO2 SLP295 T10611089 51008

More Conditions Fewer Conditions

Pressure 30.40 in
Visibility 10.0 miles
Clouds Few 4300 ft
Overcast 7000 ft
Windchill 21 °F
Dew Point 18 °F
Humidity 88%
Rainfall 0.00 in
Snow Depth Not available.
UV 0 out of 12
Pollen .10 out of 12
Air Quality Not available.
Flu Activity Not available.
METAR KIZG 211454Z AUTO 00000KT 10SM FEW043 OVC070 M06/M09 A3037 RMK AO2 SLP295 T10611089 51008

More Conditions Fewer Conditions

10-Day Weather Forecast

Almanac

Astronomy

Dec. 21, 2014 Rise Set
Actual Time
Civil Twilight
Nautical Twilight
Astronomical Twilight
Moon
Length of Visible Light
Length of Day
Tomorrow will be .
, % of the Moon is Illuminated

Today's Extremes

State Highs State Lows

Community

WunderPhotos

Upload Photos

1,779,412 photos uploaded!

WunderBlogs® & News

Nearby

Air Quality

  Air Quality AQ Index Pollutant
Not available.

Snow Depth

Station Depth Elevation

Earthquake Activity

City Distance Mag. Time & Date
Minimum magnitude displayed is 2.5.

Coastal Water Temperatures

Place Temperature

Nearby Weather Stations